sensor_id;sensor_type;location;lat;lon;timestamp;temperature;humidity
52209;DHT22;38507;53.132;6.394;2023-08-08T00:01:57;13.30;99.90
52209;DHT22;38507;53.132;6.394;2023-08-08T00:04:23;13.30;99.90
52209;DHT22;38507;53.132;6.394;2023-08-08T00:06:48;13.30;99.90
52209;DHT22;38507;53.132;6.394;2023-08-08T00:09:14;13.40;99.90
52209;DHT22;38507;53.132;6.394;2023-08-08T00:11:40;13.40;99.90
52209;DHT22;38507;53.132;6.394;2023-08-08T00:14:05;13.40;99.90
52209;DHT22;38507;53.132;6.394;2023-08-08T00:16:31;13.50;99.90
52209;DHT22;38507;53.132;6.394;2023-08-08T00:18:57;13.40;99.90
52209;DHT22;38507;53.132;6.394;2023-08-08T00:21:22;13.50;99.90
52209;DHT22;38507;53.132;6.394;2023-08-08T00:23:48;13.40;99.90
52209;DHT22;38507;53.132;6.394;2023-08-08T00:26:14;13.50;99.90
52209;DHT22;38507;53.132;6.394;2023-08-08T00:28:39;13.50;99.90
52209;DHT22;38507;53.132;6.394;2023-08-08T00:31:05;13.40;99.90
52209;DHT22;38507;53.132;6.394;2023-08-08T00:33:31;13.70;99.90
52209;DHT22;38507;53.132;6.394;2023-08-08T00:35:57;13.50;99.90
52209;DHT22;38507;53.132;6.394;2023-08-08T00:38:22;13.50;99.90
52209;DHT22;38507;53.132;6.394;2023-08-08T00:40:48;13.50;99.90
52209;DHT22;38507;53.132;6.394;2023-08-08T00:43:13;13.50;99.90
52209;DHT22;38507;53.132;6.394;2023-08-08T00:45:42;13.50;99.90
52209;DHT22;38507;53.132;6.394;2023-08-08T00:48:08;13.50;99.90
52209;DHT22;38507;53.132;6.394;2023-08-08T00:50:35;13.50;99.90
52209;DHT22;38507;53.132;6.394;2023-08-08T00:53:01;13.50;99.90
52209;DHT22;38507;53.132;6.394;2023-08-08T00:55:28;13.50;99.90
52209;DHT22;38507;53.132;6.394;2023-08-08T00:57:53;13.50;99.90
52209;DHT22;38507;53.132;6.394;2023-08-08T01:00:19;13.50;99.90
52209;DHT22;38507;53.132;6.394;2023-08-08T01:02:45;13.60;99.90
52209;DHT22;38507;53.132;6.394;2023-08-08T01:05:11;13.50;99.90
52209;DHT22;38507;53.132;6.394;2023-08-08T01:10:31;13.50;99.90
52209;DHT22;38507;53.132;6.394;2023-08-08T01:13:08;13.50;99.90
52209;DHT22;38507;53.132;6.394;2023-08-08T01:15:36;13.50;99.90
52209;DHT22;38507;53.132;6.394;2023-08-08T01:18:07;13.50;99.90
52209;DHT22;38507;53.132;6.394;2023-08-08T01:20:34;13.50;99.90
52209;DHT22;38507;53.132;6.394;2023-08-08T01:23:11;13.40;99.90
52209;DHT22;38507;53.132;6.394;2023-08-08T01:25:39;13.40;99.90
52209;DHT22;38507;53.132;6.394;2023-08-08T01:28:06;13.40;99.90
52209;DHT22;38507;53.132;6.394;2023-08-08T01:30:32;13.40;99.90
52209;DHT22;38507;53.132;6.394;2023-08-08T01:32:58;13.40;99.90
52209;DHT22;38507;53.132;6.394;2023-08-08T01:35:26;13.40;99.90
52209;DHT22;38507;53.132;6.394;2023-08-08T01:38:04;13.40;99.90
52209;DHT22;38507;53.132;6.394;2023-08-08T01:40:34;13.20;99.90
52209;DHT22;38507;53.132;6.394;2023-08-08T01:43:00;13.30;99.90
52209;DHT22;38507;53.132;6.394;2023-08-08T01:45:27;13.30;99.90
52209;DHT22;38507;53.132;6.394;2023-08-08T01:47:52;13.30;99.90
52209;DHT22;38507;53.132;6.394;2023-08-08T01:50:19;13.40;99.90
52209;DHT22;38507;53.132;6.394;2023-08-08T01:52:46;13.50;99.90
52209;DHT22;38507;53.132;6.394;2023-08-08T01:55:12;13.30;99.90
52209;DHT22;38507;53.132;6.394;2023-08-08T01:57:38;13.20;99.90
52209;DHT22;38507;53.132;6.394;2023-08-08T02:00:06;13.20;99.90
52209;DHT22;38507;53.132;6.394;2023-08-08T02:02:32;13.30;99.90
52209;DHT22;38507;53.132;6.394;2023-08-08T02:04:57;13.30;99.90
52209;DHT22;38507;53.132;6.394;2023-08-08T02:07:23;13.30;99.90
52209;DHT22;38507;53.132;6.394;2023-08-08T02:09:49;13.30;99.90
52209;DHT22;38507;53.132;6.394;2023-08-08T02:12:16;13.30;99.90
52209;DHT22;38507;53.132;6.394;2023-08-08T02:14:42;13.30;99.90
52209;DHT22;38507;53.132;6.394;2023-08-08T02:17:07;13.30;99.90
52209;DHT22;38507;53.132;6.394;2023-08-08T02:19:33;13.40;99.90
52209;DHT22;38507;53.132;6.394;2023-08-08T02:21:59;13.30;99.90
52209;DHT22;38507;53.132;6.394;2023-08-08T02:24:24;13.30;99.90
52209;DHT22;38507;53.132;6.394;2023-08-08T02:26:50;13.40;99.90
52209;DHT22;38507;53.132;6.394;2023-08-08T02:29:15;13.30;99.90
52209;DHT22;38507;53.132;6.394;2023-08-08T02:31:41;13.30;99.90
52209;DHT22;38507;53.132;6.394;2023-08-08T02:34:07;13.30;99.90
52209;DHT22;38507;53.132;6.394;2023-08-08T02:36:32;13.40;99.90
52209;DHT22;38507;53.132;6.394;2023-08-08T02:38:59;13.40;99.90
52209;DHT22;38507;53.132;6.394;2023-08-08T02:41:24;13.60;99.90
52209;DHT22;38507;53.132;6.394;2023-08-08T02:43:50;13.40;99.90
52209;DHT22;38507;53.132;6.394;2023-08-08T02:46:16;13.40;99.90
52209;DHT22;38507;53.132;6.394;2023-08-08T02:48:41;13.60;99.90
52209;DHT22;38507;53.132;6.394;2023-08-08T02:51:07;13.50;99.90
52209;DHT22;38507;53.132;6.394;2023-08-08T02:53:33;13.50;99.90
52209;DHT22;38507;53.132;6.394;2023-08-08T02:55:58;13.40;99.90
52209;DHT22;38507;53.132;6.394;2023-08-08T02:58:24;13.50;99.90
52209;DHT22;38507;53.132;6.394;2023-08-08T03:00:49;13.50;99.90
52209;DHT22;38507;53.132;6.394;2023-08-08T03:03:15;13.40;99.90
52209;DHT22;38507;53.132;6.394;2023-08-08T03:05:40;13.40;99.90
52209;DHT22;38507;53.132;6.394;2023-08-08T03:08:06;13.40;99.90
52209;DHT22;38507;53.132;6.394;2023-08-08T03:10:32;13.50;99.90
52209;DHT22;38507;53.132;6.394;2023-08-08T03:12:57;13.50;99.90
52209;DHT22;38507;53.132;6.394;2023-08-08T03:15:23;13.50;99.90
52209;DHT22;38507;53.132;6.394;2023-08-08T03:17:49;13.50;99.90
52209;DHT22;38507;53.132;6.394;2023-08-08T03:20:14;13.50;99.90
52209;DHT22;38507;53.132;6.394;2023-08-08T03:22:40;13.40;99.90
52209;DHT22;38507;53.132;6.394;2023-08-08T03:25:06;13.40;99.90
52209;DHT22;38507;53.132;6.394;2023-08-08T03:27:32;13.40;99.90
52209;DHT22;38507;53.132;6.394;2023-08-08T03:29:57;13.30;99.90
52209;DHT22;38507;53.132;6.394;2023-08-08T03:32:23;13.30;99.90
52209;DHT22;38507;53.132;6.394;2023-08-08T03:34:49;13.30;99.90
52209;DHT22;38507;53.132;6.394;2023-08-08T03:37:14;13.30;99.90
52209;DHT22;38507;53.132;6.394;2023-08-08T03:39:40;13.30;99.90
52209;DHT22;38507;53.132;6.394;2023-08-08T03:42:06;13.20;99.90
52209;DHT22;38507;53.132;6.394;2023-08-08T03:44:32;13.30;99.90
52209;DHT22;38507;53.132;6.394;2023-08-08T03:46:57;13.20;99.90
52209;DHT22;38507;53.132;6.394;2023-08-08T03:49:23;13.30;99.90
52209;DHT22;38507;53.132;6.394;2023-08-08T03:51:49;13.30;99.90
52209;DHT22;38507;53.132;6.394;2023-08-08T03:54:14;13.30;99.90
52209;DHT22;38507;53.132;6.394;2023-08-08T03:56:41;13.30;99.90
52209;DHT22;38507;53.132;6.394;2023-08-08T03:59:06;13.30;99.90
52209;DHT22;38507;53.132;6.394;2023-08-08T04:01:32;13.20;99.90
52209;DHT22;38507;53.132;6.394;2023-08-08T04:03:58;13.20;99.90
52209;DHT22;38507;53.132;6.394;2023-08-08T04:06:24;13.20;99.90
52209;DHT22;38507;53.132;6.394;2023-08-08T04:08:49;13.30;99.90
52209;DHT22;38507;53.132;6.394;2023-08-08T04:11:16;13.30;99.90
52209;DHT22;38507;53.132;6.394;2023-08-08T04:13:41;13.40;99.90
52209;DHT22;38507;53.132;6.394;2023-08-08T04:16:07;13.30;99.90
52209;DHT22;38507;53.132;6.394;2023-08-08T04:18:32;13.40;99.90
52209;DHT22;38507;53.132;6.394;2023-08-08T04:20:58;13.30;99.90
52209;DHT22;38507;53.132;6.394;2023-08-08T04:23:24;13.40;99.90
52209;DHT22;38507;53.132;6.394;2023-08-08T04:25:52;13.30;99.90
52209;DHT22;38507;53.132;6.394;2023-08-08T04:28:18;13.30;99.90
52209;DHT22;38507;53.132;6.394;2023-08-08T04:30:43;13.30;99.90
52209;DHT22;38507;53.132;6.394;2023-08-08T04:33:09;13.30;99.90
52209;DHT22;38507;53.132;6.394;2023-08-08T04:35:35;13.50;99.90
52209;DHT22;38507;53.132;6.394;2023-08-08T04:38:00;13.30;99.90
52209;DHT22;38507;53.132;6.394;2023-08-08T04:40:26;13.40;99.90
52209;DHT22;38507;53.132;6.394;2023-08-08T04:42:52;13.30;99.90
52209;DHT22;38507;53.132;6.394;2023-08-08T04:45:18;13.40;99.90
52209;DHT22;38507;53.132;6.394;2023-08-08T04:47:43;13.40;99.90
52209;DHT22;38507;53.132;6.394;2023-08-08T04:50:10;13.20;99.90
52209;DHT22;38507;53.132;6.394;2023-08-08T04:52:35;13.20;99.90
52209;DHT22;38507;53.132;6.394;2023-08-08T04:55:01;13.20;99.90
52209;DHT22;38507;53.132;6.394;2023-08-08T04:57:27;13.20;99.90
52209;DHT22;38507;53.132;6.394;2023-08-08T04:59:52;13.20;99.90
52209;DHT22;38507;53.132;6.394;2023-08-08T05:02:18;13.20;99.90
52209;DHT22;38507;53.132;6.394;2023-08-08T05:04:44;13.20;99.90
52209;DHT22;38507;53.132;6.394;2023-08-08T05:07:09;13.20;99.90
52209;DHT22;38507;53.132;6.394;2023-08-08T05:09:35;13.10;99.90
52209;DHT22;38507;53.132;6.394;2023-08-08T05:12:01;13.10;99.90
52209;DHT22;38507;53.132;6.394;2023-08-08T05:14:26;13.10;99.90
52209;DHT22;38507;53.132;6.394;2023-08-08T05:16:52;13.20;99.90
52209;DHT22;38507;53.132;6.394;2023-08-08T05:19:17;13.20;99.90
52209;DHT22;38507;53.132;6.394;2023-08-08T05:21:43;13.20;99.90
52209;DHT22;38507;53.132;6.394;2023-08-08T05:24:09;13.20;99.90
52209;DHT22;38507;53.132;6.394;2023-08-08T05:26:34;13.20;99.90
52209;DHT22;38507;53.132;6.394;2023-08-08T05:29:00;13.40;99.90
52209;DHT22;38507;53.132;6.394;2023-08-08T05:31:26;13.30;99.90
52209;DHT22;38507;53.132;6.394;2023-08-08T05:33:51;13.30;99.90
52209;DHT22;38507;53.132;6.394;2023-08-08T05:36:17;13.40;99.90
52209;DHT22;38507;53.132;6.394;2023-08-08T05:38:42;13.40;99.90
52209;DHT22;38507;53.132;6.394;2023-08-08T05:41:08;13.50;99.90
52209;DHT22;38507;53.132;6.394;2023-08-08T05:43:34;13.50;99.90
52209;DHT22;38507;53.132;6.394;2023-08-08T05:45:59;13.60;99.90
52209;DHT22;38507;53.132;6.394;2023-08-08T05:48:25;13.60;99.90
52209;DHT22;38507;53.132;6.394;2023-08-08T05:50:52;13.60;99.90
52209;DHT22;38507;53.132;6.394;2023-08-08T05:53:18;13.70;99.90
52209;DHT22;38507;53.132;6.394;2023-08-08T05:55:43;13.80;99.90
52209;DHT22;38507;53.132;6.394;2023-08-08T05:58:09;13.90;99.90
52209;DHT22;38507;53.132;6.394;2023-08-08T06:00:35;13.90;99.90
52209;DHT22;38507;53.132;6.394;2023-08-08T06:03:01;14.20;99.90
52209;DHT22;38507;53.132;6.394;2023-08-08T06:05:27;14.10;99.90
52209;DHT22;38507;53.132;6.394;2023-08-08T06:07:54;14.20;99.90
52209;DHT22;38507;53.132;6.394;2023-08-08T06:10:21;14.30;99.90
52209;DHT22;38507;53.132;6.394;2023-08-08T06:12:47;14.40;99.90
52209;DHT22;38507;53.132;6.394;2023-08-08T06:15:13;14.40;99.90
52209;DHT22;38507;53.132;6.394;2023-08-08T06:17:39;14.50;99.90
52209;DHT22;38507;53.132;6.394;2023-08-08T06:20:05;14.60;99.90
52209;DHT22;38507;53.132;6.394;2023-08-08T06:22:32;14.60;99.90
52209;DHT22;38507;53.132;6.394;2023-08-08T06:24:57;14.70;99.90
52209;DHT22;38507;53.132;6.394;2023-08-08T06:27:23;14.80;99.90
52209;DHT22;38507;53.132;6.394;2023-08-08T06:29:49;14.90;99.90
52209;DHT22;38507;53.132;6.394;2023-08-08T06:32:14;14.90;99.90
52209;DHT22;38507;53.132;6.394;2023-08-08T06:34:40;15.00;99.90
52209;DHT22;38507;53.132;6.394;2023-08-08T06:37:05;15.00;99.90
52209;DHT22;38507;53.132;6.394;2023-08-08T06:39:31;15.10;99.90
52209;DHT22;38507;53.132;6.394;2023-08-08T06:41:57;15.20;99.90
52209;DHT22;38507;53.132;6.394;2023-08-08T06:44:23;15.30;99.90
52209;DHT22;38507;53.132;6.394;2023-08-08T06:46:48;15.30;99.90
52209;DHT22;38507;53.132;6.394;2023-08-08T06:49:14;15.40;99.90
52209;DHT22;38507;53.132;6.394;2023-08-08T06:51:40;15.40;99.90
52209;DHT22;38507;53.132;6.394;2023-08-08T06:54:05;15.40;99.90
52209;DHT22;38507;53.132;6.394;2023-08-08T06:56:31;15.50;99.90
52209;DHT22;38507;53.132;6.394;2023-08-08T06:58:57;15.60;99.90
52209;DHT22;38507;53.132;6.394;2023-08-08T07:01:22;15.70;99.90
52209;DHT22;38507;53.132;6.394;2023-08-08T07:03:48;15.70;99.90
52209;DHT22;38507;53.132;6.394;2023-08-08T07:06:17;15.80;99.90
52209;DHT22;38507;53.132;6.394;2023-08-08T07:08:43;15.80;99.90
52209;DHT22;38507;53.132;6.394;2023-08-08T07:11:09;15.90;99.90
52209;DHT22;38507;53.132;6.394;2023-08-08T07:13:34;16.10;99.90
52209;DHT22;38507;53.132;6.394;2023-08-08T07:16:00;16.20;99.90
52209;DHT22;38507;53.132;6.394;2023-08-08T07:18:26;16.30;99.90
52209;DHT22;38507;53.132;6.394;2023-08-08T07:20:51;16.40;99.90
52209;DHT22;38507;53.132;6.394;2023-08-08T07:23:17;16.40;99.90
52209;DHT22;38507;53.132;6.394;2023-08-08T07:25:43;16.30;99.90
52209;DHT22;38507;53.132;6.394;2023-08-08T07:28:10;16.40;99.90
52209;DHT22;38507;53.132;6.394;2023-08-08T07:30:35;16.40;99.90
52209;DHT22;38507;53.132;6.394;2023-08-08T07:33:01;16.50;99.90
52209;DHT22;38507;53.132;6.394;2023-08-08T07:35:27;16.50;99.90
52209;DHT22;38507;53.132;6.394;2023-08-08T07:37:53;16.50;99.90
52209;DHT22;38507;53.132;6.394;2023-08-08T07:40:20;16.60;99.90
52209;DHT22;38507;53.132;6.394;2023-08-08T07:42:47;16.60;99.90
52209;DHT22;38507;53.132;6.394;2023-08-08T07:45:13;16.70;99.90
52209;DHT22;38507;53.132;6.394;2023-08-08T07:47:39;16.70;99.90
52209;DHT22;38507;53.132;6.394;2023-08-08T07:50:05;16.60;99.90
52209;DHT22;38507;53.132;6.394;2023-08-08T07:52:34;16.70;99.90
52209;DHT22;38507;53.132;6.394;2023-08-08T07:55:00;16.70;99.90
52209;DHT22;38507;53.132;6.394;2023-08-08T07:57:26;16.70;99.90
52209;DHT22;38507;53.132;6.394;2023-08-08T07:59:52;16.60;99.90
52209;DHT22;38507;53.132;6.394;2023-08-08T08:02:18;16.60;99.90
52209;DHT22;38507;53.132;6.394;2023-08-08T08:04:43;16.60;99.90
52209;DHT22;38507;53.132;6.394;2023-08-08T08:07:09;16.70;99.90
52209;DHT22;38507;53.132;6.394;2023-08-08T08:09:35;16.70;99.90
52209;DHT22;38507;53.132;6.394;2023-08-08T08:12:00;16.70;99.90
52209;DHT22;38507;53.132;6.394;2023-08-08T08:14:26;16.80;99.90
52209;DHT22;38507;53.132;6.394;2023-08-08T08:16:52;16.80;99.90
52209;DHT22;38507;53.132;6.394;2023-08-08T08:19:18;16.80;99.90
52209;DHT22;38507;53.132;6.394;2023-08-08T08:21:43;16.70;99.90
52209;DHT22;38507;53.132;6.394;2023-08-08T08:24:09;16.70;99.90
52209;DHT22;38507;53.132;6.394;2023-08-08T08:26:35;16.60;99.90
52209;DHT22;38507;53.132;6.394;2023-08-08T08:29:01;16.60;99.90
52209;DHT22;38507;53.132;6.394;2023-08-08T08:31:26;16.80;99.90
52209;DHT22;38507;53.132;6.394;2023-08-08T08:33:52;16.70;99.90
52209;DHT22;38507;53.132;6.394;2023-08-08T08:36:20;16.70;99.90
52209;DHT22;38507;53.132;6.394;2023-08-08T08:38:47;16.60;99.90
52209;DHT22;38507;53.132;6.394;2023-08-08T08:41:18;16.60;99.90
52209;DHT22;38507;53.132;6.394;2023-08-08T08:43:45;16.50;99.90
52209;DHT22;38507;53.132;6.394;2023-08-08T08:46:13;16.60;99.90
52209;DHT22;38507;53.132;6.394;2023-08-08T08:48:40;16.70;99.90
52209;DHT22;38507;53.132;6.394;2023-08-08T08:51:06;16.90;99.90
52209;DHT22;38507;53.132;6.394;2023-08-08T08:53:32;17.10;99.90
52209;DHT22;38507;53.132;6.394;2023-08-08T08:56:01;17.20;99.90
52209;DHT22;38507;53.132;6.394;2023-08-08T08:58:27;17.50;99.90
52209;DHT22;38507;53.132;6.394;2023-08-08T09:00:54;17.60;99.90
52209;DHT22;38507;53.132;6.394;2023-08-08T09:03:20;17.70;99.90
52209;DHT22;38507;53.132;6.394;2023-08-08T09:05:46;17.90;99.90
52209;DHT22;38507;53.132;6.394;2023-08-08T09:08:13;17.80;99.90
52209;DHT22;38507;53.132;6.394;2023-08-08T09:10:40;17.60;99.90
52209;DHT22;38507;53.132;6.394;2023-08-08T09:13:06;17.50;99.90
52209;DHT22;38507;53.132;6.394;2023-08-08T09:15:33;17.30;99.90
52209;DHT22;38507;53.132;6.394;2023-08-08T09:17:59;17.60;99.90
52209;DHT22;38507;53.132;6.394;2023-08-08T09:20:26;17.50;99.90
52209;DHT22;38507;53.132;6.394;2023-08-08T09:22:53;17.50;99.90
52209;DHT22;38507;53.132;6.394;2023-08-08T09:25:19;17.40;99.90
52209;DHT22;38507;53.132;6.394;2023-08-08T09:27:44;17.50;99.90
52209;DHT22;38507;53.132;6.394;2023-08-08T09:30:11;17.80;99.90
52209;DHT22;38507;53.132;6.394;2023-08-08T09:32:37;17.90;99.90
52209;DHT22;38507;53.132;6.394;2023-08-08T09:35:03;18.10;99.90
52209;DHT22;38507;53.132;6.394;2023-08-08T09:37:30;18.00;99.90
52209;DHT22;38507;53.132;6.394;2023-08-08T09:40:00;17.90;99.90
52209;DHT22;38507;53.132;6.394;2023-08-08T09:42:28;17.50;99.90
52209;DHT22;38507;53.132;6.394;2023-08-08T09:44:56;17.10;99.90
52209;DHT22;38507;53.132;6.394;2023-08-08T09:47:22;16.90;99.90
52209;DHT22;38507;53.132;6.394;2023-08-08T09:49:48;17.00;99.90
52209;DHT22;38507;53.132;6.394;2023-08-08T09:52:15;17.30;99.90
52209;DHT22;38507;53.132;6.394;2023-08-08T09:54:41;17.40;99.90
52209;DHT22;38507;53.132;6.394;2023-08-08T09:57:08;17.20;99.90
52209;DHT22;38507;53.132;6.394;2023-08-08T09:59:34;17.20;99.90
52209;DHT22;38507;53.132;6.394;2023-08-08T10:02:01;17.10;99.90
52209;DHT22;38507;53.132;6.394;2023-08-08T10:04:27;17.40;99.90
52209;DHT22;38507;53.132;6.394;2023-08-08T10:06:53;17.30;99.90
52209;DHT22;38507;53.132;6.394;2023-08-08T10:09:19;17.20;99.90
52209;DHT22;38507;53.132;6.394;2023-08-08T10:11:46;17.00;99.90
52209;DHT22;38507;53.132;6.394;2023-08-08T10:14:12;17.00;99.90
52209;DHT22;38507;53.132;6.394;2023-08-08T10:16:42;16.90;99.90
52209;DHT22;38507;53.132;6.394;2023-08-08T10:19:08;17.00;99.90
52209;DHT22;38507;53.132;6.394;2023-08-08T10:21:37;17.30;99.90
52209;DHT22;38507;53.132;6.394;2023-08-08T10:26:28;17.60;99.90
52209;DHT22;38507;53.132;6.394;2023-08-08T10:28:58;17.40;99.90
52209;DHT22;38507;53.132;6.394;2023-08-08T10:31:24;17.30;99.90
52209;DHT22;38507;53.132;6.394;2023-08-08T10:34:01;17.40;99.90
52209;DHT22;38507;53.132;6.394;2023-08-08T10:36:49;17.80;99.90
52209;DHT22;38507;53.132;6.394;2023-08-08T10:39:16;18.20;99.90
52209;DHT22;38507;53.132;6.394;2023-08-08T10:41:47;18.20;99.90
52209;DHT22;38507;53.132;6.394;2023-08-08T10:44:13;18.00;99.90
52209;DHT22;38507;53.132;6.394;2023-08-08T10:46:45;18.30;99.90
52209;DHT22;38507;53.132;6.394;2023-08-08T10:49:12;18.60;99.90
52209;DHT22;38507;53.132;6.394;2023-08-08T10:51:39;18.70;99.90
52209;DHT22;38507;53.132;6.394;2023-08-08T10:54:22;18.80;99.90
52209;DHT22;38507;53.132;6.394;2023-08-08T10:56:55;19.00;99.90
52209;DHT22;38507;53.132;6.394;2023-08-08T10:59:38;19.10;99.90
52209;DHT22;38507;53.132;6.394;2023-08-08T11:02:04;19.40;99.90
52209;DHT22;38507;53.132;6.394;2023-08-08T11:04:30;19.30;99.90
52209;DHT22;38507;53.132;6.394;2023-08-08T11:06:57;18.80;99.90
52209;DHT22;38507;53.132;6.394;2023-08-08T11:09:23;18.90;99.90
52209;DHT22;38507;53.132;6.394;2023-08-08T11:11:49;18.90;99.90
52209;DHT22;38507;53.132;6.394;2023-08-08T11:14:16;18.80;99.90
52209;DHT22;38507;53.132;6.394;2023-08-08T11:16:43;18.70;99.90
52209;DHT22;38507;53.132;6.394;2023-08-08T11:19:11;18.40;99.90
52209;DHT22;38507;53.132;6.394;2023-08-08T11:21:40;18.10;99.90
52209;DHT22;38507;53.132;6.394;2023-08-08T11:24:06;18.40;99.90
52209;DHT22;38507;53.132;6.394;2023-08-08T11:26:34;18.30;99.90
52209;DHT22;38507;53.132;6.394;2023-08-08T11:29:00;18.10;99.90
52209;DHT22;38507;53.132;6.394;2023-08-08T11:31:26;17.80;99.90
52209;DHT22;38507;53.132;6.394;2023-08-08T11:33:54;18.10;99.90
52209;DHT22;38507;53.132;6.394;2023-08-08T11:36:20;18.20;99.90
52209;DHT22;38507;53.132;6.394;2023-08-08T11:38:48;18.30;99.90
52209;DHT22;38507;53.132;6.394;2023-08-08T11:41:15;18.60;99.90
52209;DHT22;38507;53.132;6.394;2023-08-08T11:43:41;18.90;99.90
52209;DHT22;38507;53.132;6.394;2023-08-08T11:46:12;19.20;99.90
52209;DHT22;38507;53.132;6.394;2023-08-08T11:48:39;19.20;99.90
52209;DHT22;38507;53.132;6.394;2023-08-08T11:51:05;19.20;99.90
52209;DHT22;38507;53.132;6.394;2023-08-08T11:53:31;19.20;99.90
52209;DHT22;38507;53.132;6.394;2023-08-08T11:55:59;19.30;99.90
52209;DHT22;38507;53.132;6.394;2023-08-08T11:58:25;19.40;99.90
52209;DHT22;38507;53.132;6.394;2023-08-08T12:00:51;19.60;99.90
52209;DHT22;38507;53.132;6.394;2023-08-08T12:03:18;19.70;99.90
52209;DHT22;38507;53.132;6.394;2023-08-08T12:05:48;19.50;99.90
52209;DHT22;38507;53.132;6.394;2023-08-08T12:08:20;19.20;99.90
52209;DHT22;38507;53.132;6.394;2023-08-08T12:10:50;18.90;99.90
52209;DHT22;38507;53.132;6.394;2023-08-08T12:13:22;19.00;99.90
52209;DHT22;38507;53.132;6.394;2023-08-08T12:15:48;19.10;99.90
52209;DHT22;38507;53.132;6.394;2023-08-08T12:18:17;18.90;99.90
52209;DHT22;38507;53.132;6.394;2023-08-08T12:20:43;19.00;99.90
52209;DHT22;38507;53.132;6.394;2023-08-08T12:23:10;19.00;99.90
52209;DHT22;38507;53.132;6.394;2023-08-08T12:25:36;19.00;99.90
52209;DHT22;38507;53.132;6.394;2023-08-08T12:28:02;18.90;99.90
52209;DHT22;38507;53.132;6.394;2023-08-08T12:30:28;18.80;99.90
52209;DHT22;38507;53.132;6.394;2023-08-08T12:32:53;18.70;99.90
52209;DHT22;38507;53.132;6.394;2023-08-08T12:35:19;18.60;99.90
52209;DHT22;38507;53.132;6.394;2023-08-08T12:37:46;18.50;99.90
52209;DHT22;38507;53.132;6.394;2023-08-08T12:40:12;18.80;99.90
52209;DHT22;38507;53.132;6.394;2023-08-08T12:42:38;18.70;99.90
52209;DHT22;38507;53.132;6.394;2023-08-08T12:45:05;19.00;99.90
52209;DHT22;38507;53.132;6.394;2023-08-08T12:47:31;18.90;99.90
52209;DHT22;38507;53.132;6.394;2023-08-08T12:49:57;18.50;99.90
52209;DHT22;38507;53.132;6.394;2023-08-08T12:52:23;18.80;99.90
52209;DHT22;38507;53.132;6.394;2023-08-08T12:54:49;19.10;99.90
52209;DHT22;38507;53.132;6.394;2023-08-08T12:57:14;18.80;99.90
52209;DHT22;38507;53.132;6.394;2023-08-08T12:59:40;19.10;99.90
52209;DHT22;38507;53.132;6.394;2023-08-08T13:02:06;19.10;99.90
52209;DHT22;38507;53.132;6.394;2023-08-08T13:04:32;19.00;99.90
52209;DHT22;38507;53.132;6.394;2023-08-08T13:06:58;19.30;99.90
52209;DHT22;38507;53.132;6.394;2023-08-08T13:09:24;19.10;99.90
52209;DHT22;38507;53.132;6.394;2023-08-08T13:11:49;19.20;99.90
52209;DHT22;38507;53.132;6.394;2023-08-08T13:14:15;19.10;99.90
52209;DHT22;38507;53.132;6.394;2023-08-08T13:16:42;19.10;99.90
52209;DHT22;38507;53.132;6.394;2023-08-08T13:19:07;19.10;99.90
52209;DHT22;38507;53.132;6.394;2023-08-08T13:21:33;19.30;99.90
52209;DHT22;38507;53.132;6.394;2023-08-08T13:23:59;19.60;99.90
52209;DHT22;38507;53.132;6.394;2023-08-08T13:26:24;19.90;99.90
52209;DHT22;38507;53.132;6.394;2023-08-08T13:28:50;20.00;99.90
52209;DHT22;38507;53.132;6.394;2023-08-08T13:31:16;19.90;99.90
52209;DHT22;38507;53.132;6.394;2023-08-08T13:33:42;20.10;99.90
52209;DHT22;38507;53.132;6.394;2023-08-08T13:36:07;20.20;99.90
52209;DHT22;38507;53.132;6.394;2023-08-08T13:38:33;20.30;99.90
52209;DHT22;38507;53.132;6.394;2023-08-08T13:40:58;20.20;99.90
52209;DHT22;38507;53.132;6.394;2023-08-08T13:43:26;20.10;99.90
52209;DHT22;38507;53.132;6.394;2023-08-08T13:45:52;20.00;99.90
52209;DHT22;38507;53.132;6.394;2023-08-08T13:48:17;19.80;99.90
52209;DHT22;38507;53.132;6.394;2023-08-08T13:50:43;19.60;99.90
52209;DHT22;38507;53.132;6.394;2023-08-08T13:53:09;19.50;99.90
52209;DHT22;38507;53.132;6.394;2023-08-08T13:55:35;19.10;99.90
52209;DHT22;38507;53.132;6.394;2023-08-08T13:58:05;18.90;99.90
52209;DHT22;38507;53.132;6.394;2023-08-08T14:00:32;19.10;99.90
52209;DHT22;38507;53.132;6.394;2023-08-08T14:02:58;19.10;99.90
52209;DHT22;38507;53.132;6.394;2023-08-08T14:05:24;19.20;99.90
52209;DHT22;38507;53.132;6.394;2023-08-08T14:07:50;19.30;99.90
52209;DHT22;38507;53.132;6.394;2023-08-08T14:10:16;19.50;99.90
52209;DHT22;38507;53.132;6.394;2023-08-08T14:12:41;19.50;99.90
52209;DHT22;38507;53.132;6.394;2023-08-08T14:15:08;19.80;99.90
52209;DHT22;38507;53.132;6.394;2023-08-08T14:17:35;19.70;99.90
52209;DHT22;38507;53.132;6.394;2023-08-08T14:20:00;19.60;99.90
52209;DHT22;38507;53.132;6.394;2023-08-08T14:22:26;19.20;99.90
52209;DHT22;38507;53.132;6.394;2023-08-08T14:24:52;19.30;99.90
52209;DHT22;38507;53.132;6.394;2023-08-08T14:27:17;19.40;99.90
52209;DHT22;38507;53.132;6.394;2023-08-08T14:29:43;19.50;99.90
52209;DHT22;38507;53.132;6.394;2023-08-08T14:32:09;19.80;99.90
52209;DHT22;38507;53.132;6.394;2023-08-08T14:34:36;19.70;99.90
52209;DHT22;38507;53.132;6.394;2023-08-08T14:37:03;19.60;99.90
52209;DHT22;38507;53.132;6.394;2023-08-08T14:39:29;19.60;99.90
52209;DHT22;38507;53.132;6.394;2023-08-08T14:41:56;19.70;99.90
52209;DHT22;38507;53.132;6.394;2023-08-08T14:44:22;19.80;99.90
52209;DHT22;38507;53.132;6.394;2023-08-08T14:46:47;19.90;99.90
52209;DHT22;38507;53.132;6.394;2023-08-08T14:49:13;20.00;99.90
52209;DHT22;38507;53.132;6.394;2023-08-08T14:51:39;20.00;99.90
52209;DHT22;38507;53.132;6.394;2023-08-08T14:54:04;20.10;99.90
52209;DHT22;38507;53.132;6.394;2023-08-08T14:56:30;19.90;99.90
52209;DHT22;38507;53.132;6.394;2023-08-08T14:58:56;19.30;99.90
52209;DHT22;38507;53.132;6.394;2023-08-08T15:01:22;19.00;99.90
52209;DHT22;38507;53.132;6.394;2023-08-08T15:03:48;18.70;99.90
52209;DHT22;38507;53.132;6.394;2023-08-08T15:06:14;18.60;99.90
52209;DHT22;38507;53.132;6.394;2023-08-08T15:08:39;18.80;99.90
52209;DHT22;38507;53.132;6.394;2023-08-08T15:11:05;18.80;99.90
52209;DHT22;38507;53.132;6.394;2023-08-08T15:13:32;18.40;99.90
52209;DHT22;38507;53.132;6.394;2023-08-08T15:15:58;18.30;99.90
52209;DHT22;38507;53.132;6.394;2023-08-08T15:18:24;18.20;99.90
52209;DHT22;38507;53.132;6.394;2023-08-08T15:20:49;18.10;99.90
52209;DHT22;38507;53.132;6.394;2023-08-08T15:23:15;18.10;99.90
52209;DHT22;38507;53.132;6.394;2023-08-08T15:25:41;18.20;99.90
52209;DHT22;38507;53.132;6.394;2023-08-08T15:28:07;18.40;99.90
52209;DHT22;38507;53.132;6.394;2023-08-08T15:30:33;18.40;99.90